Zealand Delilah — PBZI — position and weather

sailwx.info

Track history (hours):
 
Tides and Currents Weather Stations Pressure Air Temp Water Temp Dewpoint Dewpoint Depression Visibility Wind Speed Wind Dir Waves Ship Positions

Zealand Delilah

Last reported at 2014-Sep-19 09:28 UTC. Time now 2014-Sep-30 11:55 UTC.
Position N 31°57' W 016°51'.
Warning: this ship's position is 11 days out of date.

Length 135 m; draft 7.2 m.

Type: Ship. MMSI: 245935000.

Date/timePositionNaut miles runAvg speedWind from/ knotsBaromVisibWave heightAir tempDewpointWater temp
2014-Sep-19 09:28N 31°57' W 016°51'1011.3
2014-Sep-19 08:32N 32°00' W 016°40'  
2014-Sep-16 21:31N 35°58' W 005°31'9 9.5
2014-Sep-16 20:33N 36°01' W 005°21'14411.1
2014-Sep-16 07:33N 36°24' W 002°25'3712.0
2014-Sep-16 04:27N 36°30' W 001°39'1312.3
2014-Sep-16 03:22N 36°31' W 001°22'2312.4
2014-Sep-16 01:29N 36°35' W 000°54'1112.1
2014-Sep-16 00:33N 36°36' W 000°40'1711.7
2014-Sep-15 23:06N 36°39' W 000°19'1111.4
2014-Sep-15 22:08N 36°41' W 000°05'711.4
2014-Sep-15 21:34N 36°41' E 000°03'1211.4
2014-Sep-15 20:30N 36°43' E 000°17'1111.6
2014-Sep-15 19:33N 36°45' E 000°31'1211.8
2014-Sep-15 18:33N 36°46' E 000°46'1111.3
2014-Sep-15 17:33N 36°48' E 000°60'1211.6
2014-Sep-15 16:31N 36°49' E 001°15'1211.8
2014-Sep-15 15:32N 36°51' E 001°29'2611.1
2014-Sep-15 13:09N 36°55' E 002°02'610.8
2014-Sep-15 12:33N 36°56' E 002°09'23211.5
2014-Sep-14 16:22N 37°30' E 006°58'29511.4
2014-Sep-13 14:31N 36°51' E 013°04'1211.8
2014-Sep-13 13:30N 36°48' E 013°19'1111.8
2014-Sep-13 12:33N 36°44' E 013°32'1211.1
2014-Sep-13 11:30N 36°39' E 013°45'1210.9
2014-Sep-13 10:24N 36°34' E 013°58'1110.7
2014-Sep-13 09:22N 36°30' E 014°11'5 4.5
2014-Sep-13 08:20N 36°29' E 014°17'810.1
2014-Sep-13 07:30N 36°31' E 014°27'1111.9
2014-Sep-13 06:33N 36°28' E 014°41'41511.5
2014-Sep-11 18:26N 36°30' E 023°17'1212.9
2014-Sep-11 17:32N 36°40' E 023°25'1512.3
2014-Sep-11 16:16N 36°53' E 023°35'912.3
2014-Sep-11 15:33N 37°02' E 023°36'1212.1
2014-Sep-11 14:32N 37°14' E 023°39'1512.2
2014-Sep-11 13:20N 37°29' E 023°41'1012.2
2014-Sep-11 12:33N 37°38' E 023°42'1212.2
2014-Sep-11 11:33N 37°49' E 023°36'4 4.1
2014-Sep-11 10:31N 37°53' E 023°33'0 0.0
2014-Sep-11 09:31N 37°53' E 023°33'0 0.1
2014-Sep-11 08:31N 37°53' E 023°33'0 0.0
2014-Sep-11 07:28N 37°53' E 023°33'0 0.1
2014-Sep-11 06:33N 37°53' E 023°33'5 4.9
2014-Sep-11 05:33N 37°51' E 023°39'33 8.3
2014-Sep-11 01:33N 37°44' E 024°20'7711.1
2014-Sep-10 18:33N 38°50' E 025°11'6112.2
2014-Sep-10 13:33N 39°45' E 025°46'1812.6
2014-Sep-10 12:06N 40°01' E 025°59'  
Track history (hours):
 
Tides and Currents Weather Stations Pressure Air Temp Water Temp Dewpoint Dewpoint Depression Visibility Wind Speed Wind Dir Waves Ship Positions

Zealand Delilah

Last reported at 2014-Sep-19 09:28 UTC. Time now 2014-Sep-30 11:55 UTC.
Position N 31°57' W 016°51'.
Warning: this ship's position is 11 days out of date.

Length 135 m; draft 7.2 m.

Type: Ship. MMSI: 245935000.

Date/timePositionNaut miles runAvg speedWind from/ knotsBaromVisibWave heightAir tempDewpointWater temp
2014-Sep-19 09:28N 31°57' W 016°51'1011.3
2014-Sep-19 08:32N 32°00' W 016°40'  
2014-Sep-16 21:31N 35°58' W 005°31'9 9.5
2014-Sep-16 20:33N 36°01' W 005°21'14411.1
2014-Sep-16 07:33N 36°24' W 002°25'3712.0
2014-Sep-16 04:27N 36°30' W 001°39'1312.3
2014-Sep-16 03:22N 36°31' W 001°22'2312.4
2014-Sep-16 01:29N 36°35' W 000°54'1112.1
2014-Sep-16 00:33N 36°36' W 000°40'1711.7
2014-Sep-15 23:06N 36°39' W 000°19'1111.4
2014-Sep-15 22:08N 36°41' W 000°05'711.4
2014-Sep-15 21:34N 36°41' E 000°03'1211.4
2014-Sep-15 20:30N 36°43' E 000°17'1111.6
2014-Sep-15 19:33N 36°45' E 000°31'1211.8
2014-Sep-15 18:33N 36°46' E 000°46'1111.3
2014-Sep-15 17:33N 36°48' E 000°60'1211.6
2014-Sep-15 16:31N 36°49' E 001°15'1211.8
2014-Sep-15 15:32N 36°51' E 001°29'2611.1
2014-Sep-15 13:09N 36°55' E 002°02'610.8
2014-Sep-15 12:33N 36°56' E 002°09'23211.5
2014-Sep-14 16:22N 37°30' E 006°58'29511.4
2014-Sep-13 14:31N 36°51' E 013°04'1211.8
2014-Sep-13 13:30N 36°48' E 013°19'1111.8
2014-Sep-13 12:33N 36°44' E 013°32'1211.1
2014-Sep-13 11:30N 36°39' E 013°45'1210.9
2014-Sep-13 10:24N 36°34' E 013°58'1110.7
2014-Sep-13 09:22N 36°30' E 014°11'5 4.5
2014-Sep-13 08:20N 36°29' E 014°17'810.1
2014-Sep-13 07:30N 36°31' E 014°27'1111.9
2014-Sep-13 06:33N 36°28' E 014°41'41511.5
2014-Sep-11 18:26N 36°30' E 023°17'1212.9
2014-Sep-11 17:32N 36°40' E 023°25'1512.3
2014-Sep-11 16:16N 36°53' E 023°35'912.3
2014-Sep-11 15:33N 37°02' E 023°36'1212.1
2014-Sep-11 14:32N 37°14' E 023°39'1512.2
2014-Sep-11 13:20N 37°29' E 023°41'1012.2
2014-Sep-11 12:33N 37°38' E 023°42'1212.2
2014-Sep-11 11:33N 37°49' E 023°36'4 4.1
2014-Sep-11 10:31N 37°53' E 023°33'0 0.0
2014-Sep-11 09:31N 37°53' E 023°33'0 0.1
2014-Sep-11 08:31N 37°53' E 023°33'0 0.0
2014-Sep-11 07:28N 37°53' E 023°33'0 0.1
2014-Sep-11 06:33N 37°53' E 023°33'5 4.9
2014-Sep-11 05:33N 37°51' E 023°39'33 8.3
2014-Sep-11 01:33N 37°44' E 024°20'7711.1
2014-Sep-10 18:33N 38°50' E 025°11'6112.2
2014-Sep-10 13:33N 39°45' E 025°46'1812.6
2014-Sep-10 12:06N 40°01' E 025°59'  

Dump ship's entire track history